Tuesday, January 23, 2018, 11:53 PM GMT
Back to Local

CWNQ, Nicolet Automatic Weather Reporting System

Location: , , Canada Lat: 46.217
Local Time: 11:53 PM GMT (23:53 GMT) Lon: -72.65
Time Zone: GMT Elev: 32 ft

Show me the last for .
Show Coded

Time T Td Feel RH Dir Speed Gust Alt SLP Vis Weather Sky Remarks
2018-01-23 23:00 25 23 21 92 40° 3 - - 29.44 0 None
2018-01-23 22:00 27 25 23 92 50° 3 - - 29.46 0 None
2018-01-23 21:00 28 26 24 92 60° 3 - - 29.46 0 None
2018-01-23 20:00 27 25 22 92 60° 5 - - 29.48 0 None
2018-01-23 19:00 26 24 18 92 50° 7 - - 29.50 0 None
2018-01-23 18:00 26 24 17 92 60° 9 - - 29.51 0 Pressure falling rapidly
2018-01-23 17:00 24 22 13 92 60° 12 - - 29.57 0 Peak wind: 23 mph (20 kts) from 60° at 16 min
Pressure falling rapidly
2018-01-23 16:00 22 19 7 88 60° 15 21 - 29.64 0 Peak wind: 20 mph (18 kts) from 80° at 16 min
2018-01-23 15:00 21 17 5 85 50° 14 22 - 29.68 0 Peak wind: 24 mph (21 kts) from 40° at 13 min
2018-01-23 14:00 20 17 4 86 50° 13 21 - 29.70 0 Peak wind: 23 mph (20 kts) from 50° at 27 min
2018-01-23 13:00 19 16 3 86 50° 14 20 - 29.75 0 Peak wind: 25 mph (22 kts) from 40° at 45 min
2018-01-23 12:00 19 16 2 87 50° 14 22 - 29.78 0 Peak wind: 24 mph (21 kts) from 40° at 46 min
2018-01-23 11:00 19 16 2 86 60° 14 21 - 29.83 0 Peak wind: 23 mph (20 kts) from 50° at 05 min
2018-01-23 10:00 19 16 2 86 60° 16 23 - 29.87 0 Peak wind: 24 mph (21 kts) from 60° at 27 min
2018-01-23 09:00 19 19 2 96 60° 14 25 - 29.91 0 Peak wind: 25 mph (22 kts) from 70° at 54 min
2018-01-23 08:00 18 16 1 91 60° 14 22 - 29.95 0 Peak wind: 24 mph (21 kts) from 60° at 30 min
2018-01-23 07:00 17 15 0 91 50° 13 21 - 29.99 0 Peak wind: 21 mph (19 kts) from 50° at 40 min
2018-01-23 06:00 17 15 0 91 50° 12 18 - 30.03 0 Peak wind: 20 mph (18 kts) from 50° at 38 min
2018-01-23 05:00 17 15 -2 91 60° 13 24 - 30.05 0 Peak wind: 24 mph (21 kts) from 60° at 55 min
Pressure falling rapidly
2018-01-23 04:00 17 15 1 91 60° 10 18 - 30.12 0 Peak wind: 21 mph (19 kts) from 40° at 12 min
2018-01-23 03:00 17 15 1 91 60° 13 18 - 30.15 0 Peak wind: 23 mph (20 kts) from 40° at 31 min
2018-01-23 02:00 17 15 1 91 50° 12 20 - 30.18 0 Peak wind: 21 mph (19 kts) from 50° at 28 min
2018-01-23 01:00 17 15 5 88 60° 10 - - 30.23 0 None
2018-01-23 00:00 19 10 3 67 50° 10 20 - 30.23 0 Peak wind: 21 mph (19 kts) from 70° at 08 min

Support USWX by starting your Amazon purchase here.